createdAt,value
2022-10-24T00:03:42.682Z,100409.16
2022-10-24T00:08:46.198Z,100403.81
2022-10-24T00:13:49.399Z,100400.97
2022-10-24T00:18:51.962Z,100405.28
2022-10-24T00:23:54.809Z,100413.97
2022-10-24T00:28:57.530Z,100406.09
2022-10-24T00:34:00.874Z,100401.16
2022-10-24T00:39:03.971Z,100396.63
2022-10-24T00:44:26.153Z,100404.00
2022-10-24T00:49:46.940Z,100387.13
2022-10-24T00:54:51.404Z,100393.69
2022-10-24T00:59:58.218Z,100391.00
2022-10-24T01:05:02.228Z,100386.03
2022-10-24T01:10:27.568Z,100374.69
2022-10-24T01:15:40.465Z,100373.06
2022-10-24T01:20:55.425Z,100376.06
2022-10-24T01:26:23.230Z,100396.63
2022-10-24T01:31:30.276Z,100389.44
2022-10-24T01:36:43.704Z,100380.78
2022-10-24T01:41:47.188Z,100378.50
2022-10-24T01:47:17.502Z,100367.97
2022-10-24T01:52:21.268Z,100373.50
2022-10-24T01:57:29.195Z,100367.91
2022-10-24T02:02:37.971Z,100380.22
2022-10-24T02:07:42.665Z,100376.72
2022-10-24T02:12:49.618Z,100377.56
2022-10-24T02:17:53.544Z,100351.16
2022-10-24T02:23:06.206Z,100356.75
2022-10-24T02:28:16.651Z,100355.84
2022-10-24T02:33:20.091Z,100357.22
2022-10-24T02:38:33.162Z,100337.78
2022-10-24T02:43:36.239Z,100340.56
2022-10-24T02:48:43.048Z,100345.75
2022-10-24T02:53:46.707Z,100342.66
2022-10-24T02:58:49.832Z,100323.16
2022-10-24T03:03:52.701Z,100336.59
2022-10-24T03:08:55.476Z,100334.94
2022-10-24T03:13:58.219Z,100338.63
2022-10-24T03:19:01.168Z,100349.84
2022-10-24T03:24:04.235Z,100351.84
2022-10-24T03:29:06.964Z,100335.56
2022-10-24T03:34:09.772Z,100316.78
2022-10-24T03:39:12.526Z,100322.84
2022-10-24T03:44:15.366Z,100336.22
2022-10-24T03:49:18.173Z,100331.06
2022-10-24T03:54:20.761Z,100336.75
2022-10-24T03:59:23.574Z,100328.94
2022-10-24T04:04:26.376Z,100327.81
2022-10-24T04:09:29.090Z,100347.47
2022-10-24T04:14:32.111Z,100350.97
2022-10-24T04:19:34.774Z,100358.16
2022-10-24T04:24:39.573Z,100358.84
2022-10-24T04:29:42.427Z,100358.66
2022-10-24T04:34:45.247Z,100345.72
2022-10-24T04:39:47.859Z,100337.59
2022-10-24T04:44:50.929Z,100327.78
2022-10-24T04:49:53.812Z,100335.16
2022-10-24T04:54:56.589Z,100330.66
2022-10-24T04:59:59.782Z,100329.47
2022-10-24T05:05:02.474Z,100325.81
2022-10-24T05:10:06.018Z,100335.44
2022-10-24T05:15:09.387Z,100333.97
2022-10-24T05:20:12.284Z,100347.94
2022-10-24T05:25:15.032Z,100371.75
2022-10-24T05:30:18.078Z,100374.22
2022-10-24T05:35:20.835Z,100374.09
2022-10-24T05:40:23.570Z,100376.75
2022-10-24T05:45:26.341Z,100384.25
2022-10-24T05:50:30.164Z,100395.56
2022-10-24T05:55:33.657Z,100388.44
2022-10-24T06:00:36.357Z,100391.28
2022-10-24T06:05:39.147Z,100404.81
2022-10-24T06:10:42.414Z,100412.13
2022-10-24T06:15:45.770Z,100414.13
2022-10-24T06:20:54.057Z,100434.25
2022-10-24T06:25:59.208Z,100416.97
2022-10-24T06:31:03.552Z,100413.63
2022-10-24T06:36:09.518Z,100415.47
2022-10-24T06:41:14.997Z,100418.50
2022-10-24T06:46:17.926Z,100409.19
2022-10-24T06:51:20.764Z,100395.22
2022-10-24T06:56:23.593Z,100375.31
2022-10-24T07:01:27.614Z,100373.50
2022-10-24T07:06:30.474Z,100385.50
2022-10-24T07:11:34.563Z,100407.47
2022-10-24T07:16:37.480Z,100422.94
2022-10-24T07:21:40.256Z,100443.06
2022-10-24T07:26:43.131Z,100479.19
2022-10-24T07:31:46.954Z,100457.38
2022-10-24T07:36:49.705Z,100466.88
2022-10-24T07:41:52.424Z,100435.72
2022-10-24T07:46:55.297Z,100399.59
2022-10-24T07:51:58.045Z,100413.09
2022-10-24T07:57:00.997Z,100412.91
2022-10-24T08:02:03.789Z,100423.38
2022-10-24T08:07:13.437Z,100423.06
2022-10-24T08:12:17.112Z,100401.88
2022-10-24T08:17:19.900Z,100399.03
2022-10-24T08:22:22.660Z,100407.16
2022-10-24T08:27:25.505Z,100405.31
2022-10-24T08:32:28.265Z,100388.81
2022-10-24T08:37:31.104Z,100384.91
2022-10-24T08:42:33.840Z,100391.66
2022-10-24T08:52:42.945Z,100377.63
2022-10-24T08:57:54.376Z,100377.09
2022-10-24T09:03:26.647Z,100370.56
2022-10-24T09:09:00.620Z,100384.41
2022-10-24T09:14:12.112Z,100386.84
2022-10-24T09:19:17.467Z,100386.84
2022-10-24T09:24:38.968Z,100387.59
2022-10-24T09:29:41.946Z,100395.38
2022-10-24T09:34:45.036Z,100407.31
2022-10-24T09:39:48.031Z,100410.28
2022-10-24T09:44:50.794Z,100417.13
2022-10-24T09:49:54.253Z,100418.28
2022-10-24T09:55:05.206Z,100416.00
2022-10-24T10:00:22.876Z,100417.56
2022-10-24T10:05:25.946Z,100414.06
2022-10-24T10:10:32.200Z,100402.53
2022-10-24T10:15:46.208Z,100390.16
2022-10-24T10:21:03.041Z,100378.75
2022-10-24T10:26:05.809Z,100372.69
2022-10-24T10:31:10.295Z,100362.09
2022-10-24T10:36:21.126Z,100363.50
2022-10-24T10:41:42.977Z,100356.69
2022-10-24T10:47:17.458Z,100351.69
2022-10-24T10:52:31.329Z,100340.53
2022-10-24T10:57:40.327Z,100343.94
2022-10-24T11:03:07.638Z,100341.06
2022-10-24T11:08:31.255Z,100343.38
2022-10-24T11:13:54.478Z,100334.41
2022-10-24T11:19:05.376Z,100329.34
2022-10-24T11:24:21.357Z,100330.25
2022-10-24T11:29:33.387Z,100323.66
2022-10-24T11:34:50.712Z,100310.75
2022-10-24T11:40:01.071Z,100313.25
2022-10-24T11:45:14.316Z,100310.69
2022-10-24T11:50:38.949Z,100314.91
2022-10-24T11:55:47.320Z,100302.50
2022-10-24T12:01:24.081Z,100306.31
2022-10-24T12:07:02.274Z,100308.97
2022-10-24T12:12:23.568Z,100295.19
2022-10-24T12:17:32.556Z,100299.72
2022-10-24T12:22:38.151Z,100290.03
2022-10-24T12:27:41.865Z,100280.78
2022-10-24T12:32:48.448Z,100261.91
2022-10-24T12:37:51.304Z,100251.25
2022-10-24T12:42:59.128Z,100266.19
2022-10-24T12:48:14.166Z,100269.06
2022-10-24T12:53:18.521Z,100269.03
2022-10-24T12:58:35.825Z,100269.19
2022-10-24T13:03:50.620Z,100245.84
2022-10-24T13:09:06.450Z,100244.22
2022-10-24T13:14:46.201Z,100240.09
2022-10-24T13:20:21.850Z,100221.19
2022-10-24T13:25:35.403Z,100226.13
2022-10-24T13:30:38.117Z,100250.22
2022-10-24T13:35:40.984Z,100226.94
2022-10-24T13:40:44.375Z,100230.88
2022-10-24T13:45:53.783Z,100221.44
2022-10-24T13:51:12.851Z,100224.50
2022-10-24T13:56:16.547Z,100221.59
2022-10-24T14:01:28.326Z,100212.94
2022-10-24T14:06:33.662Z,100219.09
2022-10-24T14:11:45.892Z,100223.16
2022-10-24T14:17:04.258Z,100226.06
2022-10-24T14:22:18.734Z,100218.59
2022-10-24T14:27:21.429Z,100213.22
2022-10-24T14:32:25.797Z,100210.75
2022-10-24T14:37:35.026Z,100216.47
2022-10-24T14:42:38.827Z,100220.19
2022-10-24T14:47:50.740Z,100227.38
2022-10-24T14:52:53.703Z,100217.25
2022-10-24T14:57:57.051Z,100207.78
2022-10-24T15:03:01.438Z,100215.81
2022-10-24T15:08:22.081Z,100224.22
2022-10-24T15:13:25.855Z,100218.44
2022-10-24T15:18:41.286Z,100211.19
2022-10-24T15:23:53.723Z,100207.03
2022-10-24T15:29:13.530Z,100210.94
2022-10-24T15:34:23.708Z,100211.31
2022-10-24T15:39:26.671Z,100213.56
2022-10-24T15:44:31.090Z,100208.81
2022-10-24T15:49:35.179Z,100193.97
2022-10-24T15:54:38.031Z,100195.38
2022-10-24T15:59:40.830Z,100192.25
2022-10-24T16:04:44.547Z,100189.59
2022-10-24T16:09:47.340Z,100191.84
2022-10-24T16:14:50.147Z,100215.03
2022-10-24T16:19:52.949Z,100216.22
2022-10-24T16:24:55.753Z,100217.47
2022-10-24T16:29:58.534Z,100219.88
2022-10-24T16:35:01.406Z,100220.06
2022-10-24T16:40:04.496Z,100222.75
2022-10-24T16:45:08.000Z,100239.97
2022-10-24T16:50:17.411Z,100231.13
2022-10-24T16:55:21.464Z,100238.34
2022-10-24T17:00:25.216Z,100237.88
2022-10-24T17:05:28.939Z,100225.72
2022-10-24T17:10:32.012Z,100222.44
2022-10-24T17:15:35.219Z,100205.75
2022-10-24T17:20:37.795Z,100201.41
2022-10-24T17:25:40.986Z,100209.84
2022-10-24T17:30:44.317Z,100210.59
2022-10-24T17:35:52.486Z,100212.19
2022-10-24T17:40:57.096Z,100223.78
2022-10-24T17:46:00.075Z,100213.63
2022-10-24T17:51:02.815Z,100210.69
2022-10-24T17:56:05.956Z,100212.00
2022-10-24T18:01:09.211Z,100217.34
2022-10-24T18:06:12.691Z,100212.53
2022-10-24T18:11:15.465Z,100217.66
2022-10-24T18:16:19.691Z,100216.19
2022-10-24T18:21:24.817Z,100225.28
2022-10-24T18:26:27.974Z,100213.31
2022-10-24T18:31:31.405Z,100183.13
2022-10-24T18:36:34.348Z,100188.47
2022-10-24T18:41:49.331Z,100182.31
2022-10-24T18:46:54.312Z,100173.00
2022-10-24T18:52:09.280Z,100176.06
2022-10-24T18:57:31.455Z,100164.91
2022-10-24T19:02:54.903Z,100167.69
2022-10-24T19:07:57.819Z,100155.56
2022-10-24T19:13:00.886Z,100151.22
2022-10-24T19:18:04.425Z,100168.13
2022-10-24T19:23:07.224Z,100169.06
2022-10-24T19:28:16.991Z,100154.97
2022-10-24T19:33:20.800Z,100168.75
2022-10-24T19:38:24.491Z,100165.69
2022-10-24T19:43:30.804Z,100166.56
2022-10-24T19:48:34.528Z,100161.94
2022-10-24T19:53:39.364Z,100160.47
2022-10-24T19:58:43.105Z,100170.31
2022-10-24T20:03:47.348Z,100161.66
2022-10-24T20:08:50.301Z,100137.53
2022-10-24T20:13:53.356Z,100117.78
2022-10-24T20:18:56.087Z,100121.75
2022-10-24T20:23:58.864Z,100126.69
2022-10-24T20:29:02.060Z,100130.31
2022-10-24T20:34:09.747Z,100137.59
2022-10-24T20:39:14.620Z,100136.88
2022-10-24T20:44:17.398Z,100126.13
2022-10-24T20:49:20.159Z,100127.03
2022-10-24T20:54:22.980Z,100124.66
2022-10-24T20:59:25.755Z,100135.22
2022-10-24T21:04:28.567Z,100136.50
2022-10-24T21:09:32.584Z,100134.94
2022-10-24T21:14:35.304Z,100130.09
2022-10-24T21:19:38.623Z,100126.84
2022-10-24T21:24:41.431Z,100135.50
2022-10-24T21:29:44.224Z,100144.34
2022-10-24T21:34:47.034Z,100147.00
2022-10-24T21:39:49.782Z,100148.03
2022-10-24T21:44:52.581Z,100144.97
2022-10-24T21:49:55.373Z,100143.78
2022-10-24T21:54:58.168Z,100140.53
2022-10-24T22:00:00.981Z,100141.66
2022-10-24T22:05:04.532Z,100139.06
2022-10-24T22:10:07.996Z,100144.34
2022-10-24T22:15:10.968Z,100149.13
2022-10-24T22:20:13.783Z,100159.59
2022-10-24T22:25:16.662Z,100160.78
2022-10-24T22:30:19.355Z,100157.28
2022-10-24T22:35:22.580Z,100163.47
2022-10-24T22:40:27.553Z,100159.41
2022-10-24T22:45:30.667Z,100159.41
2022-10-24T22:50:45.689Z,100165.56
2022-10-24T22:56:13.921Z,100171.94
2022-10-24T23:01:22.764Z,100164.56
2022-10-24T23:06:53.677Z,100153.06
2022-10-24T23:11:56.713Z,100155.91
2022-10-24T23:17:00.569Z,100169.25
2022-10-24T23:22:28.350Z,100148.09
2022-10-24T23:27:43.131Z,100117.66
2022-10-24T23:32:47.750Z,100134.22
2022-10-24T23:37:52.682Z,100139.75
2022-10-24T23:42:55.857Z,100134.41
2022-10-24T23:48:16.681Z,100118.41
2022-10-24T23:53:50.349Z,100106.06
2022-10-24T23:58:53.588Z,100098.41
